sensor_id;sensor_type;location;lat;lon;timestamp;P1;durP1;ratioP1;P2;durP2;ratioP2
21899;SDS011;11114;50.658;12.704;2023-06-10T00:00:05;14.32;;;13.10;;
21899;SDS011;11114;50.658;12.704;2023-06-10T00:03:00;13.82;;;12.73;;
21899;SDS011;11114;50.658;12.704;2023-06-10T00:05:47;13.40;;;12.40;;
21899;SDS011;11114;50.658;12.704;2023-06-10T00:08:35;13.95;;;12.95;;
21899;SDS011;11114;50.658;12.704;2023-06-10T00:11:23;13.98;;;12.93;;
21899;SDS011;11114;50.658;12.704;2023-06-10T00:14:08;14.05;;;13.05;;
21899;SDS011;11114;50.658;12.704;2023-06-10T00:16:55;15.25;;;13.80;;
21899;SDS011;11114;50.658;12.704;2023-06-10T00:19:44;14.52;;;13.43;;
21899;SDS011;11114;50.658;12.704;2023-06-10T00:22:33;14.63;;;13.52;;
21899;SDS011;11114;50.658;12.704;2023-06-10T00:25:19;14.65;;;13.50;;
21899;SDS011;11114;50.658;12.704;2023-06-10T00:28:06;14.15;;;13.15;;
21899;SDS011;11114;50.658;12.704;2023-06-10T00:30:52;14.60;;;13.50;;
21899;SDS011;11114;50.658;12.704;2023-06-10T00:33:38;15.20;;;13.93;;
21899;SDS011;11114;50.658;12.704;2023-06-10T00:36:25;15.93;;;14.65;;
21899;SDS011;11114;50.658;12.704;2023-06-10T00:39:12;14.60;;;13.45;;
21899;SDS011;11114;50.658;12.704;2023-06-10T00:41:59;15.88;;;14.48;;
21899;SDS011;11114;50.658;12.704;2023-06-10T00:44:46;16.30;;;14.93;;
21899;SDS011;11114;50.658;12.704;2023-06-10T00:47:33;17.27;;;15.88;;
21899;SDS011;11114;50.658;12.704;2023-06-10T00:50:21;17.05;;;15.48;;
21899;SDS011;11114;50.658;12.704;2023-06-10T00:53:07;16.20;;;14.85;;
21899;SDS011;11114;50.658;12.704;2023-06-10T00:55:54;15.25;;;14.15;;
21899;SDS011;11114;50.658;12.704;2023-06-10T00:58:41;14.98;;;13.88;;
21899;SDS011;11114;50.658;12.704;2023-06-10T01:01:28;15.55;;;14.35;;
21899;SDS011;11114;50.658;12.704;2023-06-10T01:04:15;15.75;;;14.45;;
21899;SDS011;11114;50.658;12.704;2023-06-10T01:10:19;15.68;;;14.50;;
21899;SDS011;11114;50.658;12.704;2023-06-10T01:13:11;15.65;;;14.45;;
21899;SDS011;11114;50.658;12.704;2023-06-10T01:15:59;16.33;;;15.02;;
21899;SDS011;11114;50.658;12.704;2023-06-10T01:18:46;15.85;;;14.63;;
21899;SDS011;11114;50.658;12.704;2023-06-10T01:21:32;16.52;;;15.07;;
21899;SDS011;11114;50.658;12.704;2023-06-10T01:24:20;15.93;;;14.65;;
21899;SDS011;11114;50.658;12.704;2023-06-10T01:27:08;15.90;;;14.70;;
21899;SDS011;11114;50.658;12.704;2023-06-10T01:30:04;15.85;;;14.52;;
21899;SDS011;11114;50.658;12.704;2023-06-10T01:33:07;16.00;;;14.70;;
21899;SDS011;11114;50.658;12.704;2023-06-10T01:35:59;15.02;;;13.90;;
21899;SDS011;11114;50.658;12.704;2023-06-10T01:38:48;15.10;;;13.90;;
21899;SDS011;11114;50.658;12.704;2023-06-10T01:41:36;15.00;;;13.90;;
21899;SDS011;11114;50.658;12.704;2023-06-10T01:44:23;15.20;;;14.10;;
21899;SDS011;11114;50.658;12.704;2023-06-10T01:47:10;16.02;;;14.70;;
21899;SDS011;11114;50.658;12.704;2023-06-10T01:49:56;15.25;;;14.15;;
21899;SDS011;11114;50.658;12.704;2023-06-10T01:52:43;14.77;;;13.68;;
21899;SDS011;11114;50.658;12.704;2023-06-10T01:55:29;13.98;;;12.93;;
21899;SDS011;11114;50.658;12.704;2023-06-10T01:58:15;14.50;;;13.30;;
21899;SDS011;11114;50.658;12.704;2023-06-10T02:01:03;13.57;;;12.48;;
21899;SDS011;11114;50.658;12.704;2023-06-10T02:03:51;14.48;;;13.10;;
21899;SDS011;11114;50.658;12.704;2023-06-10T02:06:37;14.60;;;13.50;;
21899;SDS011;11114;50.658;12.704;2023-06-10T02:09:24;14.48;;;13.38;;
21899;SDS011;11114;50.658;12.704;2023-06-10T02:12:11;15.13;;;13.82;;
21899;SDS011;11114;50.658;12.704;2023-06-10T02:15:00;13.90;;;12.85;;
21899;SDS011;11114;50.658;12.704;2023-06-10T02:17:46;13.80;;;12.70;;
21899;SDS011;11114;50.658;12.704;2023-06-10T02:20:35;13.93;;;12.93;;
21899;SDS011;11114;50.658;12.704;2023-06-10T02:23:22;14.40;;;13.32;;
21899;SDS011;11114;50.658;12.704;2023-06-10T02:26:08;14.18;;;13.13;;
21899;SDS011;11114;50.658;12.704;2023-06-10T02:28:55;15.05;;;13.80;;
21899;SDS011;11114;50.658;12.704;2023-06-10T02:31:42;14.77;;;13.68;;
21899;SDS011;11114;50.658;12.704;2023-06-10T02:34:28;15.23;;;14.13;;
21899;SDS011;11114;50.658;12.704;2023-06-10T02:37:16;14.90;;;13.70;;
21899;SDS011;11114;50.658;12.704;2023-06-10T02:40:04;14.90;;;13.80;;
21899;SDS011;11114;50.658;12.704;2023-06-10T02:42:52;16.27;;;14.98;;
21899;SDS011;11114;50.658;12.704;2023-06-10T02:45:38;15.23;;;14.02;;
21899;SDS011;11114;50.658;12.704;2023-06-10T02:48:41;14.82;;;13.73;;
21899;SDS011;11114;50.658;12.704;2023-06-10T02:51:39;14.93;;;13.73;;
21899;SDS011;11114;50.658;12.704;2023-06-10T02:54:26;15.60;;;14.30;;
21899;SDS011;11114;50.658;12.704;2023-06-10T02:57:14;17.08;;;15.77;;
21899;SDS011;11114;50.658;12.704;2023-06-10T03:00:02;14.07;;;12.75;;
21899;SDS011;11114;50.658;12.704;2023-06-10T03:02:51;14.80;;;13.70;;
21899;SDS011;11114;50.658;12.704;2023-06-10T03:05:43;16.55;;;15.25;;
21899;SDS011;11114;50.658;12.704;2023-06-10T03:08:31;15.68;;;14.48;;
21899;SDS011;11114;50.658;12.704;2023-06-10T03:11:22;16.30;;;15.05;;
21899;SDS011;11114;50.658;12.704;2023-06-10T03:14:09;17.08;;;15.63;;
21899;SDS011;11114;50.658;12.704;2023-06-10T03:16:56;16.10;;;14.70;;
21899;SDS011;11114;50.658;12.704;2023-06-10T03:19:43;16.67;;;15.38;;
21899;SDS011;11114;50.658;12.704;2023-06-10T03:22:30;18.20;;;16.80;;
21899;SDS011;11114;50.658;12.704;2023-06-10T03:25:22;19.63;;;17.73;;
21899;SDS011;11114;50.658;12.704;2023-06-10T03:28:11;19.85;;;18.25;;
21899;SDS011;11114;50.658;12.704;2023-06-10T03:30:57;19.63;;;17.83;;
21899;SDS011;11114;50.658;12.704;2023-06-10T03:33:44;20.77;;;19.17;;
21899;SDS011;11114;50.658;12.704;2023-06-10T03:36:31;21.77;;;19.73;;
21899;SDS011;11114;50.658;12.704;2023-06-10T03:39:19;19.73;;;17.92;;
21899;SDS011;11114;50.658;12.704;2023-06-10T03:42:05;20.45;;;18.65;;
21899;SDS011;11114;50.658;12.704;2023-06-10T03:44:52;21.00;;;19.20;;
21899;SDS011;11114;50.658;12.704;2023-06-10T03:47:38;19.67;;;18.02;;
21899;SDS011;11114;50.658;12.704;2023-06-10T03:50:30;21.30;;;19.50;;
21899;SDS011;11114;50.658;12.704;2023-06-10T03:53:17;20.80;;;19.15;;
21899;SDS011;11114;50.658;12.704;2023-06-10T03:56:04;21.58;;;19.77;;
21899;SDS011;11114;50.658;12.704;2023-06-10T03:58:51;20.95;;;19.05;;
21899;SDS011;11114;50.658;12.704;2023-06-10T04:01:37;21.05;;;19.30;;
21899;SDS011;11114;50.658;12.704;2023-06-10T04:04:27;19.60;;;18.00;;
21899;SDS011;11114;50.658;12.704;2023-06-10T04:07:14;19.90;;;18.20;;
21899;SDS011;11114;50.658;12.704;2023-06-10T04:10:01;19.40;;;17.90;;
21899;SDS011;11114;50.658;12.704;2023-06-10T04:12:48;19.67;;;18.08;;
21899;SDS011;11114;50.658;12.704;2023-06-10T04:15:34;19.55;;;18.13;;
21899;SDS011;11114;50.658;12.704;2023-06-10T04:18:25;19.17;;;17.75;;
21899;SDS011;11114;50.658;12.704;2023-06-10T04:21:14;19.20;;;17.65;;
21899;SDS011;11114;50.658;12.704;2023-06-10T04:24:00;19.92;;;18.23;;
21899;SDS011;11114;50.658;12.704;2023-06-10T04:26:47;21.20;;;19.50;;
21899;SDS011;11114;50.658;12.704;2023-06-10T04:29:33;19.95;;;18.42;;
21899;SDS011;11114;50.658;12.704;2023-06-10T04:32:20;20.73;;;19.02;;
21899;SDS011;11114;50.658;12.704;2023-06-10T04:35:07;20.27;;;18.73;;
21899;SDS011;11114;50.658;12.704;2023-06-10T04:37:55;19.73;;;18.23;;
21899;SDS011;11114;50.658;12.704;2023-06-10T04:40:42;20.45;;;18.85;;
21899;SDS011;11114;50.658;12.704;2023-06-10T04:43:30;20.55;;;18.95;;
21899;SDS011;11114;50.658;12.704;2023-06-10T04:46:18;19.88;;;18.38;;
21899;SDS011;11114;50.658;12.704;2023-06-10T04:49:08;19.45;;;18.00;;
21899;SDS011;11114;50.658;12.704;2023-06-10T04:51:54;19.33;;;17.83;;
21899;SDS011;11114;50.658;12.704;2023-06-10T04:54:41;19.77;;;18.17;;
21899;SDS011;11114;50.658;12.704;2023-06-10T04:57:26;21.52;;;19.63;;
21899;SDS011;11114;50.658;12.704;2023-06-10T05:00:13;21.85;;;20.15;;
21899;SDS011;11114;50.658;12.704;2023-06-10T05:03:00;21.00;;;19.30;;
21899;SDS011;11114;50.658;12.704;2023-06-10T05:05:49;21.02;;;19.35;;
21899;SDS011;11114;50.658;12.704;2023-06-10T05:08:36;21.70;;;19.75;;
21899;SDS011;11114;50.658;12.704;2023-06-10T05:11:22;20.52;;;18.92;;
21899;SDS011;11114;50.658;12.704;2023-06-10T05:14:08;20.10;;;18.50;;
21899;SDS011;11114;50.658;12.704;2023-06-10T05:16:55;20.23;;;18.63;;
21899;SDS011;11114;50.658;12.704;2023-06-10T05:19:41;19.63;;;18.02;;
21899;SDS011;11114;50.658;12.704;2023-06-10T05:22:28;21.40;;;19.70;;
21899;SDS011;11114;50.658;12.704;2023-06-10T05:25:14;22.42;;;20.42;;
21899;SDS011;11114;50.658;12.704;2023-06-10T05:28:01;22.67;;;20.92;;
21899;SDS011;11114;50.658;12.704;2023-06-10T05:30:48;21.35;;;19.45;;
21899;SDS011;11114;50.658;12.704;2023-06-10T05:33:34;21.05;;;19.45;;
21899;SDS011;11114;50.658;12.704;2023-06-10T05:36:20;21.38;;;19.67;;
21899;SDS011;11114;50.658;12.704;2023-06-10T05:39:07;20.52;;;18.92;;
21899;SDS011;11114;50.658;12.704;2023-06-10T05:42:05;25.13;;;22.85;;
21899;SDS011;11114;50.658;12.704;2023-06-10T05:45:14;20.88;;;19.17;;
21899;SDS011;11114;50.658;12.704;2023-06-10T05:48:01;21.00;;;19.38;;
21899;SDS011;11114;50.658;12.704;2023-06-10T05:50:50;19.73;;;18.13;;
21899;SDS011;11114;50.658;12.704;2023-06-10T05:53:37;19.75;;;18.23;;
21899;SDS011;11114;50.658;12.704;2023-06-10T05:56:27;19.40;;;17.90;;
21899;SDS011;11114;50.658;12.704;2023-06-10T05:59:17;18.05;;;16.75;;
21899;SDS011;11114;50.658;12.704;2023-06-10T06:02:03;24.77;;;22.50;;
21899;SDS011;11114;50.658;12.704;2023-06-10T06:04:51;21.55;;;19.75;;
21899;SDS011;11114;50.658;12.704;2023-06-10T06:07:37;21.33;;;19.52;;
21899;SDS011;11114;50.658;12.704;2023-06-10T06:10:24;19.67;;;18.17;;
21899;SDS011;11114;50.658;12.704;2023-06-10T06:13:11;22.10;;;20.25;;
21899;SDS011;11114;50.658;12.704;2023-06-10T06:15:58;23.23;;;21.23;;
21899;SDS011;11114;50.658;12.704;2023-06-10T06:18:44;19.92;;;18.00;;
21899;SDS011;11114;50.658;12.704;2023-06-10T06:21:38;19.25;;;17.75;;
21899;SDS011;11114;50.658;12.704;2023-06-10T06:24:24;19.77;;;18.17;;
21899;SDS011;11114;50.658;12.704;2023-06-10T06:27:11;19.83;;;18.13;;
21899;SDS011;11114;50.658;12.704;2023-06-10T06:29:57;18.75;;;17.17;;
21899;SDS011;11114;50.658;12.704;2023-06-10T06:32:45;18.55;;;17.05;;
21899;SDS011;11114;50.658;12.704;2023-06-10T06:35:32;18.48;;;16.85;;
21899;SDS011;11114;50.658;12.704;2023-06-10T06:38:20;17.95;;;16.55;;
21899;SDS011;11114;50.658;12.704;2023-06-10T06:41:06;17.27;;;15.98;;
21899;SDS011;11114;50.658;12.704;2023-06-10T06:43:54;16.20;;;15.00;;
21899;SDS011;11114;50.658;12.704;2023-06-10T06:46:55;16.95;;;15.57;;
21899;SDS011;11114;50.658;12.704;2023-06-10T06:49:44;16.98;;;15.27;;
21899;SDS011;11114;50.658;12.704;2023-06-10T06:52:35;15.73;;;14.52;;
21899;SDS011;11114;50.658;12.704;2023-06-10T06:55:22;15.32;;;14.23;;
21899;SDS011;11114;50.658;12.704;2023-06-10T06:58:09;14.77;;;13.63;;
21899;SDS011;11114;50.658;12.704;2023-06-10T07:00:56;13.93;;;12.73;;
21899;SDS011;11114;50.658;12.704;2023-06-10T07:03:44;13.05;;;12.10;;
21899;SDS011;11114;50.658;12.704;2023-06-10T07:06:29;13.75;;;12.43;;
21899;SDS011;11114;50.658;12.704;2023-06-10T07:09:17;13.50;;;12.40;;
21899;SDS011;11114;50.658;12.704;2023-06-10T07:12:04;13.57;;;12.45;;
21899;SDS011;11114;50.658;12.704;2023-06-10T07:14:52;12.48;;;11.57;;
21899;SDS011;11114;50.658;12.704;2023-06-10T07:17:40;13.23;;;12.30;;
21899;SDS011;11114;50.658;12.704;2023-06-10T07:20:28;14.60;;;13.30;;
21899;SDS011;11114;50.658;12.704;2023-06-10T07:23:16;14.68;;;13.38;;
21899;SDS011;11114;50.658;12.704;2023-06-10T07:26:03;13.70;;;12.70;;
21899;SDS011;11114;50.658;12.704;2023-06-10T07:28:50;13.55;;;12.45;;
21899;SDS011;11114;50.658;12.704;2023-06-10T07:31:37;13.45;;;12.45;;
21899;SDS011;11114;50.658;12.704;2023-06-10T07:34:24;14.07;;;12.82;;
21899;SDS011;11114;50.658;12.704;2023-06-10T07:37:10;13.23;;;12.23;;
21899;SDS011;11114;50.658;12.704;2023-06-10T07:39:57;13.40;;;12.38;;
21899;SDS011;11114;50.658;12.704;2023-06-10T07:42:43;13.80;;;12.80;;
21899;SDS011;11114;50.658;12.704;2023-06-10T07:45:30;14.10;;;12.95;;
21899;SDS011;11114;50.658;12.704;2023-06-10T07:48:17;12.73;;;11.80;;
21899;SDS011;11114;50.658;12.704;2023-06-10T07:51:03;13.43;;;12.43;;
21899;SDS011;11114;50.658;12.704;2023-06-10T07:53:50;14.07;;;12.85;;
21899;SDS011;11114;50.658;12.704;2023-06-10T07:56:37;13.82;;;12.73;;
21899;SDS011;11114;50.658;12.704;2023-06-10T07:59:23;14.10;;;12.75;;
21899;SDS011;11114;50.658;12.704;2023-06-10T08:02:11;14.30;;;13.10;;
21899;SDS011;11114;50.658;12.704;2023-06-10T08:04:57;14.32;;;13.23;;
21899;SDS011;11114;50.658;12.704;2023-06-10T08:07:44;14.60;;;13.50;;
21899;SDS011;11114;50.658;12.704;2023-06-10T08:10:30;12.57;;;11.57;;
21899;SDS011;11114;50.658;12.704;2023-06-10T08:13:19;13.65;;;12.57;;
21899;SDS011;11114;50.658;12.704;2023-06-10T08:16:06;13.38;;;12.18;;
21899;SDS011;11114;50.658;12.704;2023-06-10T08:18:53;14.68;;;13.38;;
21899;SDS011;11114;50.658;12.704;2023-06-10T08:21:40;13.95;;;12.75;;
21899;SDS011;11114;50.658;12.704;2023-06-10T08:24:26;13.02;;;12.02;;
21899;SDS011;11114;50.658;12.704;2023-06-10T08:27:13;14.32;;;13.00;;
21899;SDS011;11114;50.658;12.704;2023-06-10T08:30:00;13.85;;;12.70;;
21899;SDS011;11114;50.658;12.704;2023-06-10T08:32:46;13.57;;;12.55;;
21899;SDS011;11114;50.658;12.704;2023-06-10T08:35:33;13.82;;;12.82;;
21899;SDS011;11114;50.658;12.704;2023-06-10T08:38:20;14.90;;;13.65;;
21899;SDS011;11114;50.658;12.704;2023-06-10T08:41:06;15.23;;;13.93;;
21899;SDS011;11114;50.658;12.704;2023-06-10T08:44:17;15.20;;;13.90;;
21899;SDS011;11114;50.658;12.704;2023-06-10T08:47:13;14.52;;;13.35;;
21899;SDS011;11114;50.658;12.704;2023-06-10T08:50:04;14.05;;;12.90;;
21899;SDS011;11114;50.658;12.704;2023-06-10T08:52:54;16.60;;;13.40;;
21899;SDS011;11114;50.658;12.704;2023-06-10T08:55:44;13.88;;;12.85;;
21899;SDS011;11114;50.658;12.704;2023-06-10T08:58:37;14.23;;;12.93;;
21899;SDS011;11114;50.658;12.704;2023-06-10T09:01:28;12.90;;;11.85;;
21899;SDS011;11114;50.658;12.704;2023-06-10T09:04:15;14.15;;;12.95;;
21899;SDS011;11114;50.658;12.704;2023-06-10T09:07:04;14.07;;;12.95;;
21899;SDS011;11114;50.658;12.704;2023-06-10T09:09:51;13.90;;;12.60;;
21899;SDS011;11114;50.658;12.704;2023-06-10T09:12:39;14.10;;;13.00;;
21899;SDS011;11114;50.658;12.704;2023-06-10T09:15:27;14.38;;;13.27;;
21899;SDS011;11114;50.658;12.704;2023-06-10T09:18:13;14.68;;;13.30;;
21899;SDS011;11114;50.658;12.704;2023-06-10T09:21:00;14.35;;;12.93;;
21899;SDS011;11114;50.658;12.704;2023-06-10T09:23:46;14.65;;;13.35;;
21899;SDS011;11114;50.658;12.704;2023-06-10T09:26:35;14.52;;;13.32;;
21899;SDS011;11114;50.658;12.704;2023-06-10T09:32:45;14.70;;;13.50;;
21899;SDS011;11114;50.658;12.704;2023-06-10T09:35:35;15.13;;;13.88;;
21899;SDS011;11114;50.658;12.704;2023-06-10T09:38:22;15.15;;;13.85;;
21899;SDS011;11114;50.658;12.704;2023-06-10T09:41:09;16.30;;;15.00;;
21899;SDS011;11114;50.658;12.704;2023-06-10T09:43:56;13.88;;;12.68;;
21899;SDS011;11114;50.658;12.704;2023-06-10T09:46:46;14.32;;;13.15;;
21899;SDS011;11114;50.658;12.704;2023-06-10T09:49:34;13.80;;;12.57;;
21899;SDS011;11114;50.658;12.704;2023-06-10T09:52:27;13.60;;;12.32;;
21899;SDS011;11114;50.658;12.704;2023-06-10T09:55:15;14.18;;;12.98;;
21899;SDS011;11114;50.658;12.704;2023-06-10T09:58:01;16.17;;;14.75;;
21899;SDS011;11114;50.658;12.704;2023-06-10T10:00:52;16.13;;;14.52;;
21899;SDS011;11114;50.658;12.704;2023-06-10T10:03:46;16.77;;;15.32;;
21899;SDS011;11114;50.658;12.704;2023-06-10T10:06:36;16.92;;;15.50;;
21899;SDS011;11114;50.658;12.704;2023-06-10T10:09:23;17.50;;;16.00;;
21899;SDS011;11114;50.658;12.704;2023-06-10T10:12:14;17.88;;;16.33;;
21899;SDS011;11114;50.658;12.704;2023-06-10T10:15:02;17.90;;;16.45;;
21899;SDS011;11114;50.658;12.704;2023-06-10T10:21:01;18.80;;;17.30;;
21899;SDS011;11114;50.658;12.704;2023-06-10T10:26:48;19.17;;;17.77;;
21899;SDS011;11114;50.658;12.704;2023-06-10T10:29:38;20.40;;;18.50;;
21899;SDS011;11114;50.658;12.704;2023-06-10T10:32:32;19.67;;;18.17;;
21899;SDS011;11114;50.658;12.704;2023-06-10T10:35:21;20.08;;;18.30;;
21899;SDS011;11114;50.658;12.704;2023-06-10T10:38:09;18.52;;;17.13;;
21899;SDS011;11114;50.658;12.704;2023-06-10T10:40:56;19.05;;;17.45;;
21899;SDS011;11114;50.658;12.704;2023-06-10T10:43:46;18.65;;;17.23;;
21899;SDS011;11114;50.658;12.704;2023-06-10T10:46:43;17.42;;;15.93;;
21899;SDS011;11114;50.658;12.704;2023-06-10T10:49:33;17.10;;;15.70;;
21899;SDS011;11114;50.658;12.704;2023-06-10T10:52:21;17.38;;;15.77;;
21899;SDS011;11114;50.658;12.704;2023-06-10T10:55:12;15.98;;;14.57;;
21899;SDS011;11114;50.658;12.704;2023-06-10T10:58:06;15.40;;;14.25;;
21899;SDS011;11114;50.658;12.704;2023-06-10T11:00:53;15.73;;;14.43;;
21899;SDS011;11114;50.658;12.704;2023-06-10T11:03:44;16.80;;;15.52;;
21899;SDS011;11114;50.658;12.704;2023-06-10T11:06:33;17.65;;;16.25;;
21899;SDS011;11114;50.658;12.704;2023-06-10T11:09:27;16.35;;;15.02;;
21899;SDS011;11114;50.658;12.704;2023-06-10T11:12:22;16.15;;;14.95;;
21899;SDS011;11114;50.658;12.704;2023-06-10T11:15:09;14.55;;;13.45;;
21899;SDS011;11114;50.658;12.704;2023-06-10T11:18:10;21.27;;;13.90;;
21899;SDS011;11114;50.658;12.704;2023-06-10T11:23:46;15.13;;;13.82;;
21899;SDS011;11114;50.658;12.704;2023-06-10T11:26:32;15.07;;;13.93;;
21899;SDS011;11114;50.658;12.704;2023-06-10T11:29:20;14.60;;;13.50;;
21899;SDS011;11114;50.658;12.704;2023-06-10T11:32:07;13.98;;;12.88;;
21899;SDS011;11114;50.658;12.704;2023-06-10T11:34:54;13.02;;;11.85;;
21899;SDS011;11114;50.658;12.704;2023-06-10T11:37:41;13.30;;;12.32;;
21899;SDS011;11114;50.658;12.704;2023-06-10T11:40:28;12.00;;;11.10;;
21899;SDS011;11114;50.658;12.704;2023-06-10T11:43:19;14.10;;;13.00;;
21899;SDS011;11114;50.658;12.704;2023-06-10T11:46:06;13.80;;;12.80;;
21899;SDS011;11114;50.658;12.704;2023-06-10T11:48:55;12.95;;;11.95;;
21899;SDS011;11114;50.658;12.704;2023-06-10T11:51:42;13.45;;;12.45;;
21899;SDS011;11114;50.658;12.704;2023-06-10T11:54:35;12.93;;;11.85;;
21899;SDS011;11114;50.658;12.704;2023-06-10T11:57:22;12.60;;;11.50;;
21899;SDS011;11114;50.658;12.704;2023-06-10T12:00:10;13.35;;;11.52;;
21899;SDS011;11114;50.658;12.704;2023-06-10T12:02:59;12.65;;;11.55;;
21899;SDS011;11114;50.658;12.704;2023-06-10T12:08:48;13.13;;;12.13;;
21899;SDS011;11114;50.658;12.704;2023-06-10T12:11:35;13.70;;;12.48;;
21899;SDS011;11114;50.658;12.704;2023-06-10T12:17:42;12.40;;;11.40;;
21899;SDS011;11114;50.658;12.704;2023-06-10T12:20:31;13.25;;;12.02;;
21899;SDS011;11114;50.658;12.704;2023-06-10T12:23:21;12.95;;;11.95;;
21899;SDS011;11114;50.658;12.704;2023-06-10T12:26:08;13.27;;;12.18;;
21899;SDS011;11114;50.658;12.704;2023-06-10T12:28:54;13.13;;;12.10;;
21899;SDS011;11114;50.658;12.704;2023-06-10T12:31:54;14.02;;;12.93;;
21899;SDS011;11114;50.658;12.704;2023-06-10T12:34:45;13.10;;;12.10;;
21899;SDS011;11114;50.658;12.704;2023-06-10T12:37:33;14.77;;;13.75;;
21899;SDS011;11114;50.658;12.704;2023-06-10T12:40:25;15.40;;;14.30;;
21899;SDS011;11114;50.658;12.704;2023-06-10T12:43:18;15.68;;;14.50;;
21899;SDS011;11114;50.658;12.704;2023-06-10T12:46:11;15.98;;;14.75;;
21899;SDS011;11114;50.658;12.704;2023-06-10T12:48:58;14.00;;;12.93;;
21899;SDS011;11114;50.658;12.704;2023-06-10T12:51:46;15.45;;;14.15;;
21899;SDS011;11114;50.658;12.704;2023-06-10T12:54:33;16.60;;;15.27;;
21899;SDS011;11114;50.658;12.704;2023-06-10T12:57:21;14.88;;;13.68;;
21899;SDS011;11114;50.658;12.704;2023-06-10T13:00:07;15.90;;;14.73;;
21899;SDS011;11114;50.658;12.704;2023-06-10T13:03:00;15.55;;;14.45;;
21899;SDS011;11114;50.658;12.704;2023-06-10T13:05:47;15.00;;;13.90;;
21899;SDS011;11114;50.658;12.704;2023-06-10T13:08:34;15.70;;;14.50;;
21899;SDS011;11114;50.658;12.704;2023-06-10T13:11:21;14.55;;;13.55;;
21899;SDS011;11114;50.658;12.704;2023-06-10T13:14:07;14.15;;;13.15;;
21899;SDS011;11114;50.658;12.704;2023-06-10T13:16:53;15.18;;;13.98;;
21899;SDS011;11114;50.658;12.704;2023-06-10T13:19:41;15.02;;;13.82;;
21899;SDS011;11114;50.658;12.704;2023-06-10T13:22:29;14.75;;;13.63;;
21899;SDS011;11114;50.658;12.704;2023-06-10T13:25:18;15.95;;;14.07;;
21899;SDS011;11114;50.658;12.704;2023-06-10T13:28:04;15.57;;;14.38;;
21899;SDS011;11114;50.658;12.704;2023-06-10T13:30:51;15.60;;;14.30;;
21899;SDS011;11114;50.658;12.704;2023-06-10T13:33:38;15.50;;;14.10;;
21899;SDS011;11114;50.658;12.704;2023-06-10T13:36:24;15.23;;;13.85;;
21899;SDS011;11114;50.658;12.704;2023-06-10T13:39:11;14.50;;;13.20;;
21899;SDS011;11114;50.658;12.704;2023-06-10T13:41:59;14.80;;;13.35;;
21899;SDS011;11114;50.658;12.704;2023-06-10T13:44:46;14.55;;;13.25;;
21899;SDS011;11114;50.658;12.704;2023-06-10T13:47:35;14.35;;;13.20;;
21899;SDS011;11114;50.658;12.704;2023-06-10T13:50:21;14.32;;;13.10;;
21899;SDS011;11114;50.658;12.704;2023-06-10T13:53:08;14.35;;;13.25;;
21899;SDS011;11114;50.658;12.704;2023-06-10T13:55:54;13.65;;;12.63;;
21899;SDS011;11114;50.658;12.704;2023-06-10T13:58:41;13.20;;;12.10;;
21899;SDS011;11114;50.658;12.704;2023-06-10T14:01:32;14.07;;;12.88;;
21899;SDS011;11114;50.658;12.704;2023-06-10T14:04:19;12.85;;;11.85;;
21899;SDS011;11114;50.658;12.704;2023-06-10T14:07:08;11.50;;;10.60;;
21899;SDS011;11114;50.658;12.704;2023-06-10T14:09:54;13.00;;;11.77;;
21899;SDS011;11114;50.658;12.704;2023-06-10T14:15:32;12.23;;;11.27;;
21899;SDS011;11114;50.658;12.704;2023-06-10T14:18:25;13.18;;;12.07;;
21899;SDS011;11114;50.658;12.704;2023-06-10T14:21:12;12.45;;;11.50;;
21899;SDS011;11114;50.658;12.704;2023-06-10T14:24:00;12.90;;;11.60;;
21899;SDS011;11114;50.658;12.704;2023-06-10T14:26:46;12.57;;;11.57;;
21899;SDS011;11114;50.658;12.704;2023-06-10T14:29:34;12.02;;;10.93;;
21899;SDS011;11114;50.658;12.704;2023-06-10T14:32:22;69.93;;;13.05;;
21899;SDS011;11114;50.658;12.704;2023-06-10T14:35:08;11.50;;;10.40;;
21899;SDS011;11114;50.658;12.704;2023-06-10T14:37:56;11.13;;;10.13;;
21899;SDS011;11114;50.658;12.704;2023-06-10T14:40:45;13.30;;;10.30;;
21899;SDS011;11114;50.658;12.704;2023-06-10T14:43:31;11.77;;;10.77;;
21899;SDS011;11114;50.658;12.704;2023-06-10T14:46:18;11.80;;;10.23;;
21899;SDS011;11114;50.658;12.704;2023-06-10T14:49:07;10.73;;;9.90;;
21899;SDS011;11114;50.658;12.704;2023-06-10T14:51:55;11.43;;;10.50;;
21899;SDS011;11114;50.658;12.704;2023-06-10T14:54:45;11.02;;;10.07;;
21899;SDS011;11114;50.658;12.704;2023-06-10T14:57:32;11.30;;;10.30;;
21899;SDS011;11114;50.658;12.704;2023-06-10T15:00:22;11.00;;;10.10;;
21899;SDS011;11114;50.658;12.704;2023-06-10T15:03:11;10.30;;;9.32;;
21899;SDS011;11114;50.658;12.704;2023-06-10T15:06:00;11.25;;;10.10;;
21899;SDS011;11114;50.658;12.704;2023-06-10T15:08:46;10.95;;;9.88;;
21899;SDS011;11114;50.658;12.704;2023-06-10T15:11:34;10.00;;;9.20;;
21899;SDS011;11114;50.658;12.704;2023-06-10T15:14:21;10.90;;;9.75;;
21899;SDS011;11114;50.658;12.704;2023-06-10T15:17:15;10.90;;;10.00;;
21899;SDS011;11114;50.658;12.704;2023-06-10T15:20:01;10.88;;;9.93;;
21899;SDS011;11114;50.658;12.704;2023-06-10T15:22:48;10.13;;;9.32;;
21899;SDS011;11114;50.658;12.704;2023-06-10T15:25:36;10.48;;;9.50;;
21899;SDS011;11114;50.658;12.704;2023-06-10T15:28:22;10.43;;;9.52;;
21899;SDS011;11114;50.658;12.704;2023-06-10T15:31:13;11.20;;;10.15;;
21899;SDS011;11114;50.658;12.704;2023-06-10T15:33:59;10.40;;;9.30;;
21899;SDS011;11114;50.658;12.704;2023-06-10T15:36:46;10.68;;;9.60;;
21899;SDS011;11114;50.658;12.704;2023-06-10T15:39:34;10.60;;;9.70;;
21899;SDS011;11114;50.658;12.704;2023-06-10T15:42:21;10.95;;;9.80;;
21899;SDS011;11114;50.658;12.704;2023-06-10T15:45:11;10.75;;;9.85;;
21899;SDS011;11114;50.658;12.704;2023-06-10T15:47:58;10.60;;;9.70;;
21899;SDS011;11114;50.658;12.704;2023-06-10T15:50:44;11.27;;;10.27;;
21899;SDS011;11114;50.658;12.704;2023-06-10T15:53:31;10.98;;;10.07;;
21899;SDS011;11114;50.658;12.704;2023-06-10T15:56:18;11.15;;;10.15;;
21899;SDS011;11114;50.658;12.704;2023-06-10T16:02:49;11.45;;;10.48;;
21899;SDS011;11114;50.658;12.704;2023-06-10T16:05:36;11.45;;;10.30;;
21899;SDS011;11114;50.658;12.704;2023-06-10T16:08:23;10.48;;;9.77;;
21899;SDS011;11114;50.658;12.704;2023-06-10T16:11:09;10.50;;;9.43;;
21899;SDS011;11114;50.658;12.704;2023-06-10T16:13:56;11.70;;;10.70;;
21899;SDS011;11114;50.658;12.704;2023-06-10T16:16:43;11.68;;;10.55;;
21899;SDS011;11114;50.658;12.704;2023-06-10T16:19:29;11.82;;;10.63;;
21899;SDS011;11114;50.658;12.704;2023-06-10T16:22:16;11.18;;;10.27;;
21899;SDS011;11114;50.658;12.704;2023-06-10T16:25:02;11.13;;;10.23;;
21899;SDS011;11114;50.658;12.704;2023-06-10T16:27:54;11.32;;;10.20;;
21899;SDS011;11114;50.658;12.704;2023-06-10T16:30:42;11.35;;;10.45;;
21899;SDS011;11114;50.658;12.704;2023-06-10T16:33:28;11.52;;;10.50;;
21899;SDS011;11114;50.658;12.704;2023-06-10T16:36:14;12.30;;;11.00;;